Damgracht — PBOF — position and weather

sailwx.info

Track history (hours):
 
Tides and Currents Weather Stations Pressure Air Temp Water Temp Dewpoint Dewpoint Depression Visibility Wind Speed Wind Dir Waves Ship Positions

Damgracht

Last reported at 2017-Nov-28 19:45 UTC. Time now 2017-Dec-13 07:32 UTC.
Position S 37°31' E 176°17'.
Warning: this ship's position is 14 days out of date.

Length 157 m; draft 6.5 m.

Type: Cargo ship. MMSI: 245955000.

Date/timePositionNaut miles runAvg speedWind from/ knotsBaromVisibWave heightAir tempDewpointWater temp
2017-Nov-28 19:45S 37°31' E 176°17'1 5.3
2017-Nov-28 19:31S 37°32' E 176°16'5 9.4
2017-Nov-28 18:57S 37°36' E 176°12'3 6.5
2017-Nov-28 18:30S 37°39' E 176°11'0 0.1
2017-Nov-28 18:00S 37°39' E 176°11'0 0.0
2017-Nov-28 17:30S 37°39' E 176°11'0 0.0
2017-Nov-28 17:00S 37°39' E 176°11'0 0.0
2017-Nov-28 16:30S 37°39' E 176°11'0 0.0
2017-Nov-28 16:00S 37°39' E 176°11'0 0.0
2017-Nov-28 15:00S 37°39' E 176°11'0 0.0
2017-Nov-28 14:30S 37°39' E 176°11'0 0.0
2017-Nov-28 14:00S 37°39' E 176°11'0 0.0
2017-Nov-28 13:30S 37°39' E 176°11'0 0.0
2017-Nov-28 13:00S 37°39' E 176°11'0 0.0
2017-Nov-28 12:30S 37°39' E 176°11'0 0.0
2017-Nov-28 12:00S 37°39' E 176°11'0 0.0
2017-Nov-28 11:30S 37°39' E 176°11'0 0.0
2017-Nov-28 11:00S 37°39' E 176°11'0 0.0
2017-Nov-28 10:30S 37°39' E 176°11'0 0.0
2017-Nov-28 10:00S 37°39' E 176°11'0 0.0
2017-Nov-28 09:30S 37°39' E 176°11'0 0.0
2017-Nov-28 09:00S 37°39' E 176°11'0 0.0
2017-Nov-28 08:30S 37°39' E 176°11'0 0.0
2017-Nov-28 08:00S 37°39' E 176°11'0 0.0
2017-Nov-28 07:30S 37°39' E 176°11'0 0.0
2017-Nov-28 07:00S 37°39' E 176°11'0 0.0
2017-Nov-28 06:30S 37°39' E 176°11'0 0.0
2017-Nov-28 06:00S 37°39' E 176°11'0 0.0
2017-Nov-28 05:30S 37°39' E 176°11'0 0.0
2017-Nov-28 04:30S 37°39' E 176°11'0 0.0
2017-Nov-28 04:00S 37°39' E 176°11'0 0.0
2017-Nov-28 03:30S 37°39' E 176°11'0 0.0
2017-Nov-28 02:57S 37°39' E 176°11'0 0.0
2017-Nov-28 02:30S 37°39' E 176°11'0 0.0
2017-Nov-28 02:00S 37°39' E 176°11'0 0.0
2017-Nov-28 01:30S 37°39' E 176°11'0 0.0
2017-Nov-28 01:00S 37°39' E 176°11'0 0.0
2017-Nov-28 00:30S 37°39' E 176°11'0 0.0
2017-Nov-28 00:00S 37°39' E 176°11'0 0.0
2017-Nov-27 23:30S 37°39' E 176°11'0 0.0
2017-Nov-27 22:57S 37°39' E 176°11'0 0.0
2017-Nov-27 22:30S 37°39' E 176°11'0 0.0
2017-Nov-27 22:00S 37°39' E 176°11'0 0.0
2017-Nov-27 21:30S 37°39' E 176°11'0 0.0
2017-Nov-27 21:00S 37°39' E 176°11'0 0.0
2017-Nov-27 20:30S 37°39' E 176°11'0 0.0
2017-Nov-27 20:00S 37°39' E 176°11'0 0.0
2017-Nov-27 19:30S 37°39' E 176°11'0 0.0
2017-Nov-27 19:00S 37°39' E 176°11'0 0.0
2017-Nov-27 18:30S 37°39' E 176°11'0 0.0
2017-Nov-27 18:00S 37°39' E 176°11'0 0.0
2017-Nov-27 17:30S 37°39' E 176°11'0 0.0
2017-Nov-27 17:00S 37°39' E 176°11'0 0.0
2017-Nov-27 16:30S 37°39' E 176°11'0 0.0
2017-Nov-27 16:00S 37°39' E 176°11'0 0.0
2017-Nov-27 15:30S 37°39' E 176°11'0 0.0
2017-Nov-27 15:00S 37°39' E 176°11'0 0.0
2017-Nov-27 14:30S 37°39' E 176°11'0 0.0
2017-Nov-27 14:00S 37°39' E 176°11'0 0.0
2017-Nov-27 13:30S 37°39' E 176°11'0 0.0
2017-Nov-27 13:00S 37°39' E 176°11'0 0.0
2017-Nov-27 12:30S 37°39' E 176°11'0 0.0
2017-Nov-27 12:00S 37°39' E 176°11'0 0.1
2017-Nov-27 11:30S 37°39' E 176°11'3 6.5
2017-Nov-27 11:00S 37°35' E 176°11'4 8.3
2017-Nov-27 10:29S 37°31' E 176°12'79 7.8
2017-Nov-27 00:19S 36°23' E 175°20'3 9.2
2017-Nov-27 00:00S 36°25' E 175°17'5 9.1
2017-Nov-26 23:30S 36°27' E 175°13'5 9.3
2017-Nov-26 23:00S 36°30' E 175°09'5 9.4
2017-Nov-26 22:30S 36°33' E 175°04'5 9.5
2017-Nov-26 22:00S 36°36' E 174°59'5 9.4
2017-Nov-26 21:30S 36°40' E 174°55'6 9.5
2017-Nov-26 20:53S 36°44' E 174°50'3 8.9
2017-Nov-26 20:30S 36°47' E 174°48'4 2.4
2017-Nov-26 19:00S 36°50' E 174°47'0 0.0
2017-Nov-26 18:30S 36°50' E 174°47'0 0.0
2017-Nov-26 15:00S 36°50' E 174°47'0 0.0
2017-Nov-26 14:24S 36°50' E 174°47'0 0.0
2017-Nov-26 13:48S 36°50' E 174°47'0 0.0
2017-Nov-26 13:30S 36°50' E 174°47'0 0.0
2017-Nov-26 13:00S 36°50' E 174°47'0 0.0
2017-Nov-26 12:24S 36°50' E 174°47'0 0.0
2017-Nov-26 12:00S 36°50' E 174°47'0 0.0
2017-Nov-26 11:24S 36°50' E 174°47'0 0.0
2017-Nov-26 11:00S 36°50' E 174°47'0 0.0
2017-Nov-26 07:18S 36°50' E 174°47'0 0.0
2017-Nov-26 06:54S 36°50' E 174°47'0 0.0
2017-Nov-26 06:30S 36°50' E 174°47'0 0.0
2017-Nov-26 02:48S 36°50' E 174°47'0 0.0
2017-Nov-25 14:35S 36°50' E 174°47'0 0.0
2017-Nov-25 14:29S 36°50' E 174°47'0 0.0
2017-Nov-25 14:00S 36°50' E 174°47'0 0.0
2017-Nov-25 12:29S 36°50' E 174°47'0 0.0
2017-Nov-25 11:59S 36°50' E 174°47'0 0.0
2017-Nov-25 10:59S 36°50' E 174°47'0 0.0
2017-Nov-25 05:23S 36°50' E 174°47'0 0.0
2017-Nov-25 04:29S 36°50' E 174°47'0 0.0
2017-Nov-24 18:01S 36°50' E 174°47'0 1.3
2017-Nov-24 18:00S 36°50' E 174°47'3 6.1
2017-Nov-24 17:30S 36°48' E 174°49'612.2
2017-Nov-24 17:00S 36°43' E 174°52'510.4
2017-Nov-24 16:30S 36°38' E 174°56'510.2
2017-Nov-24 16:00S 36°33' E 174°58'510.4
2017-Nov-24 15:30S 36°28' E 174°60'510.3
2017-Nov-24 15:00S 36°23' E 174°60'510.5
2017-Nov-24 14:30S 36°18' E 174°59'  
Track history (hours):
 
Tides and Currents Weather Stations Pressure Air Temp Water Temp Dewpoint Dewpoint Depression Visibility Wind Speed Wind Dir Waves Ship Positions

Damgracht

Last reported at 2017-Nov-28 19:45 UTC. Time now 2017-Dec-13 07:32 UTC.
Position S 37°31' E 176°17'.
Warning: this ship's position is 14 days out of date.

Length 157 m; draft 6.5 m.

Type: Cargo ship. MMSI: 245955000.

Date/timePositionNaut miles runAvg speedWind from/ knotsBaromVisibWave heightAir tempDewpointWater temp
2017-Nov-28 19:45S 37°31' E 176°17'1 5.3
2017-Nov-28 19:31S 37°32' E 176°16'5 9.4
2017-Nov-28 18:57S 37°36' E 176°12'3 6.5
2017-Nov-28 18:30S 37°39' E 176°11'0 0.1
2017-Nov-28 18:00S 37°39' E 176°11'0 0.0
2017-Nov-28 17:30S 37°39' E 176°11'0 0.0
2017-Nov-28 17:00S 37°39' E 176°11'0 0.0
2017-Nov-28 16:30S 37°39' E 176°11'0 0.0
2017-Nov-28 16:00S 37°39' E 176°11'0 0.0
2017-Nov-28 15:00S 37°39' E 176°11'0 0.0
2017-Nov-28 14:30S 37°39' E 176°11'0 0.0
2017-Nov-28 14:00S 37°39' E 176°11'0 0.0
2017-Nov-28 13:30S 37°39' E 176°11'0 0.0
2017-Nov-28 13:00S 37°39' E 176°11'0 0.0
2017-Nov-28 12:30S 37°39' E 176°11'0 0.0
2017-Nov-28 12:00S 37°39' E 176°11'0 0.0
2017-Nov-28 11:30S 37°39' E 176°11'0 0.0
2017-Nov-28 11:00S 37°39' E 176°11'0 0.0
2017-Nov-28 10:30S 37°39' E 176°11'0 0.0
2017-Nov-28 10:00S 37°39' E 176°11'0 0.0
2017-Nov-28 09:30S 37°39' E 176°11'0 0.0
2017-Nov-28 09:00S 37°39' E 176°11'0 0.0
2017-Nov-28 08:30S 37°39' E 176°11'0 0.0
2017-Nov-28 08:00S 37°39' E 176°11'0 0.0
2017-Nov-28 07:30S 37°39' E 176°11'0 0.0
2017-Nov-28 07:00S 37°39' E 176°11'0 0.0
2017-Nov-28 06:30S 37°39' E 176°11'0 0.0
2017-Nov-28 06:00S 37°39' E 176°11'0 0.0
2017-Nov-28 05:30S 37°39' E 176°11'0 0.0
2017-Nov-28 04:30S 37°39' E 176°11'0 0.0
2017-Nov-28 04:00S 37°39' E 176°11'0 0.0
2017-Nov-28 03:30S 37°39' E 176°11'0 0.0
2017-Nov-28 02:57S 37°39' E 176°11'0 0.0
2017-Nov-28 02:30S 37°39' E 176°11'0 0.0
2017-Nov-28 02:00S 37°39' E 176°11'0 0.0
2017-Nov-28 01:30S 37°39' E 176°11'0 0.0
2017-Nov-28 01:00S 37°39' E 176°11'0 0.0
2017-Nov-28 00:30S 37°39' E 176°11'0 0.0
2017-Nov-28 00:00S 37°39' E 176°11'0 0.0
2017-Nov-27 23:30S 37°39' E 176°11'0 0.0
2017-Nov-27 22:57S 37°39' E 176°11'0 0.0
2017-Nov-27 22:30S 37°39' E 176°11'0 0.0
2017-Nov-27 22:00S 37°39' E 176°11'0 0.0
2017-Nov-27 21:30S 37°39' E 176°11'0 0.0
2017-Nov-27 21:00S 37°39' E 176°11'0 0.0
2017-Nov-27 20:30S 37°39' E 176°11'0 0.0
2017-Nov-27 20:00S 37°39' E 176°11'0 0.0
2017-Nov-27 19:30S 37°39' E 176°11'0 0.0
2017-Nov-27 19:00S 37°39' E 176°11'0 0.0
2017-Nov-27 18:30S 37°39' E 176°11'0 0.0
2017-Nov-27 18:00S 37°39' E 176°11'0 0.0
2017-Nov-27 17:30S 37°39' E 176°11'0 0.0
2017-Nov-27 17:00S 37°39' E 176°11'0 0.0
2017-Nov-27 16:30S 37°39' E 176°11'0 0.0
2017-Nov-27 16:00S 37°39' E 176°11'0 0.0
2017-Nov-27 15:30S 37°39' E 176°11'0 0.0
2017-Nov-27 15:00S 37°39' E 176°11'0 0.0
2017-Nov-27 14:30S 37°39' E 176°11'0 0.0
2017-Nov-27 14:00S 37°39' E 176°11'0 0.0
2017-Nov-27 13:30S 37°39' E 176°11'0 0.0
2017-Nov-27 13:00S 37°39' E 176°11'0 0.0
2017-Nov-27 12:30S 37°39' E 176°11'0 0.0
2017-Nov-27 12:00S 37°39' E 176°11'0 0.1
2017-Nov-27 11:30S 37°39' E 176°11'3 6.5
2017-Nov-27 11:00S 37°35' E 176°11'4 8.3
2017-Nov-27 10:29S 37°31' E 176°12'79 7.8
2017-Nov-27 00:19S 36°23' E 175°20'3 9.2
2017-Nov-27 00:00S 36°25' E 175°17'5 9.1
2017-Nov-26 23:30S 36°27' E 175°13'5 9.3
2017-Nov-26 23:00S 36°30' E 175°09'5 9.4
2017-Nov-26 22:30S 36°33' E 175°04'5 9.5
2017-Nov-26 22:00S 36°36' E 174°59'5 9.4
2017-Nov-26 21:30S 36°40' E 174°55'6 9.5
2017-Nov-26 20:53S 36°44' E 174°50'3 8.9
2017-Nov-26 20:30S 36°47' E 174°48'4 2.4
2017-Nov-26 19:00S 36°50' E 174°47'0 0.0
2017-Nov-26 18:30S 36°50' E 174°47'0 0.0
2017-Nov-26 15:00S 36°50' E 174°47'0 0.0
2017-Nov-26 14:24S 36°50' E 174°47'0 0.0
2017-Nov-26 13:48S 36°50' E 174°47'0 0.0
2017-Nov-26 13:30S 36°50' E 174°47'0 0.0
2017-Nov-26 13:00S 36°50' E 174°47'0 0.0
2017-Nov-26 12:24S 36°50' E 174°47'0 0.0
2017-Nov-26 12:00S 36°50' E 174°47'0 0.0
2017-Nov-26 11:24S 36°50' E 174°47'0 0.0
2017-Nov-26 11:00S 36°50' E 174°47'0 0.0
2017-Nov-26 07:18S 36°50' E 174°47'0 0.0
2017-Nov-26 06:54S 36°50' E 174°47'0 0.0
2017-Nov-26 06:30S 36°50' E 174°47'0 0.0
2017-Nov-26 02:48S 36°50' E 174°47'0 0.0
2017-Nov-25 14:35S 36°50' E 174°47'0 0.0
2017-Nov-25 14:29S 36°50' E 174°47'0 0.0
2017-Nov-25 14:00S 36°50' E 174°47'0 0.0
2017-Nov-25 12:29S 36°50' E 174°47'0 0.0
2017-Nov-25 11:59S 36°50' E 174°47'0 0.0
2017-Nov-25 10:59S 36°50' E 174°47'0 0.0
2017-Nov-25 05:23S 36°50' E 174°47'0 0.0
2017-Nov-25 04:29S 36°50' E 174°47'0 0.0
2017-Nov-24 18:01S 36°50' E 174°47'0 1.3
2017-Nov-24 18:00S 36°50' E 174°47'3 6.1
2017-Nov-24 17:30S 36°48' E 174°49'612.2
2017-Nov-24 17:00S 36°43' E 174°52'510.4
2017-Nov-24 16:30S 36°38' E 174°56'510.2
2017-Nov-24 16:00S 36°33' E 174°58'510.4
2017-Nov-24 15:30S 36°28' E 174°60'510.3
2017-Nov-24 15:00S 36°23' E 174°60'510.5
2017-Nov-24 14:30S 36°18' E 174°59'  

Dump ship's entire track history